sensor_id;sensor_type;location;lat;lon;timestamp;temperature;humidity
9450;DHT22;4763;48.370;10.874;2023-04-24T00:02:02;10.90;99.90
9450;DHT22;4763;48.370;10.874;2023-04-24T00:04:51;10.90;99.90
9450;DHT22;4763;48.370;10.874;2023-04-24T00:07:38;10.90;99.90
9450;DHT22;4763;48.370;10.874;2023-04-24T00:10:25;10.80;99.90
9450;DHT22;4763;48.370;10.874;2023-04-24T00:13:12;10.80;99.90
9450;DHT22;4763;48.370;10.874;2023-04-24T00:15:59;10.80;99.90
9450;DHT22;4763;48.370;10.874;2023-04-24T00:18:46;10.70;99.90
9450;DHT22;4763;48.370;10.874;2023-04-24T00:21:35;10.70;99.90
9450;DHT22;4763;48.370;10.874;2023-04-24T00:24:23;10.60;99.90
9450;DHT22;4763;48.370;10.874;2023-04-24T00:27:10;10.60;99.90
9450;DHT22;4763;48.370;10.874;2023-04-24T00:29:57;10.60;99.90
9450;DHT22;4763;48.370;10.874;2023-04-24T00:32:44;10.60;99.90
9450;DHT22;4763;48.370;10.874;2023-04-24T00:35:31;10.50;99.90
9450;DHT22;4763;48.370;10.874;2023-04-24T00:38:20;10.60;99.90
9450;DHT22;4763;48.370;10.874;2023-04-24T00:41:07;10.50;99.90
9450;DHT22;4763;48.370;10.874;2023-04-24T00:43:55;10.50;99.90
9450;DHT22;4763;48.370;10.874;2023-04-24T00:46:42;10.40;99.90
9450;DHT22;4763;48.370;10.874;2023-04-24T00:49:29;10.40;99.90
9450;DHT22;4763;48.370;10.874;2023-04-24T00:52:17;10.40;99.90
9450;DHT22;4763;48.370;10.874;2023-04-24T00:55:06;10.40;99.90
9450;DHT22;4763;48.370;10.874;2023-04-24T00:57:54;10.40;99.90
9450;DHT22;4763;48.370;10.874;2023-04-24T01:00:41;10.40;99.90
9450;DHT22;4763;48.370;10.874;2023-04-24T01:03:29;10.30;99.90
9450;DHT22;4763;48.370;10.874;2023-04-24T01:06:18;10.40;99.90
9450;DHT22;4763;48.370;10.874;2023-04-24T01:09:05;10.30;99.90
9450;DHT22;4763;48.370;10.874;2023-04-24T01:11:56;10.30;99.90
9450;DHT22;4763;48.370;10.874;2023-04-24T01:14:43;10.30;99.90
9450;DHT22;4763;48.370;10.874;2023-04-24T01:17:30;10.30;99.90
9450;DHT22;4763;48.370;10.874;2023-04-24T01:20:18;10.20;99.90
9450;DHT22;4763;48.370;10.874;2023-04-24T01:23:08;10.20;99.90
9450;DHT22;4763;48.370;10.874;2023-04-24T01:25:56;10.20;99.90
9450;DHT22;4763;48.370;10.874;2023-04-24T01:28:43;10.30;99.90
9450;DHT22;4763;48.370;10.874;2023-04-24T01:31:30;10.30;99.90
9450;DHT22;4763;48.370;10.874;2023-04-24T01:34:18;10.20;99.90
9450;DHT22;4763;48.370;10.874;2023-04-24T01:37:06;10.20;99.90
9450;DHT22;4763;48.370;10.874;2023-04-24T01:39:54;10.20;99.90
9450;DHT22;4763;48.370;10.874;2023-04-24T01:42:41;10.20;99.90
9450;DHT22;4763;48.370;10.874;2023-04-24T01:45:29;10.20;99.90
9450;DHT22;4763;48.370;10.874;2023-04-24T01:48:16;10.20;99.90
9450;DHT22;4763;48.370;10.874;2023-04-24T01:51:03;10.20;99.90
9450;DHT22;4763;48.370;10.874;2023-04-24T01:53:50;10.20;99.90
9450;DHT22;4763;48.370;10.874;2023-04-24T01:56:41;10.10;99.90
9450;DHT22;4763;48.370;10.874;2023-04-24T01:59:28;10.10;99.90
9450;DHT22;4763;48.370;10.874;2023-04-24T02:02:16;10.10;99.90
9450;DHT22;4763;48.370;10.874;2023-04-24T02:05:06;10.10;99.90
9450;DHT22;4763;48.370;10.874;2023-04-24T02:07:53;10.10;99.90
9450;DHT22;4763;48.370;10.874;2023-04-24T02:10:40;10.10;99.90
9450;DHT22;4763;48.370;10.874;2023-04-24T02:13:28;10.10;99.90
9450;DHT22;4763;48.370;10.874;2023-04-24T02:16:15;10.10;99.90
9450;DHT22;4763;48.370;10.874;2023-04-24T02:19:03;10.10;99.90
9450;DHT22;4763;48.370;10.874;2023-04-24T02:21:50;10.10;99.90
9450;DHT22;4763;48.370;10.874;2023-04-24T02:24:37;10.10;99.90
9450;DHT22;4763;48.370;10.874;2023-04-24T02:27:24;10.00;99.90
9450;DHT22;4763;48.370;10.874;2023-04-24T02:30:13;10.10;99.90
9450;DHT22;4763;48.370;10.874;2023-04-24T02:33:00;10.00;99.90
9450;DHT22;4763;48.370;10.874;2023-04-24T02:35:47;10.00;99.90
9450;DHT22;4763;48.370;10.874;2023-04-24T02:38:34;10.00;99.90
9450;DHT22;4763;48.370;10.874;2023-04-24T02:41:21;10.00;99.90
9450;DHT22;4763;48.370;10.874;2023-04-24T02:44:08;10.10;99.90
9450;DHT22;4763;48.370;10.874;2023-04-24T02:46:57;10.00;99.90
9450;DHT22;4763;48.370;10.874;2023-04-24T02:49:44;10.00;99.90
9450;DHT22;4763;48.370;10.874;2023-04-24T02:52:31;10.00;99.90
9450;DHT22;4763;48.370;10.874;2023-04-24T02:55:18;10.00;99.90
9450;DHT22;4763;48.370;10.874;2023-04-24T02:58:05;10.00;99.90
9450;DHT22;4763;48.370;10.874;2023-04-24T03:00:53;10.00;99.90
9450;DHT22;4763;48.370;10.874;2023-04-24T03:03:42;10.10;99.90
9450;DHT22;4763;48.370;10.874;2023-04-24T03:06:29;10.00;99.90
9450;DHT22;4763;48.370;10.874;2023-04-24T03:09:17;10.00;99.90
9450;DHT22;4763;48.370;10.874;2023-04-24T03:12:04;10.00;99.90
9450;DHT22;4763;48.370;10.874;2023-04-24T03:14:51;10.00;99.90
9450;DHT22;4763;48.370;10.874;2023-04-24T03:17:38;10.00;99.90
9450;DHT22;4763;48.370;10.874;2023-04-24T03:20:26;10.00;99.90
9450;DHT22;4763;48.370;10.874;2023-04-24T03:23:13;10.00;99.90
9450;DHT22;4763;48.370;10.874;2023-04-24T03:26:00;9.90;99.90
9450;DHT22;4763;48.370;10.874;2023-04-24T03:28:48;9.90;99.90
9450;DHT22;4763;48.370;10.874;2023-04-24T03:31:35;10.00;99.90
9450;DHT22;4763;48.370;10.874;2023-04-24T03:34:22;10.00;99.90
9450;DHT22;4763;48.370;10.874;2023-04-24T03:37:10;9.90;99.90
9450;DHT22;4763;48.370;10.874;2023-04-24T03:39:57;10.00;99.90
9450;DHT22;4763;48.370;10.874;2023-04-24T03:42:44;9.90;99.90
9450;DHT22;4763;48.370;10.874;2023-04-24T03:45:31;9.90;99.90
9450;DHT22;4763;48.370;10.874;2023-04-24T03:48:18;9.90;99.90
9450;DHT22;4763;48.370;10.874;2023-04-24T03:51:05;9.90;99.90
9450;DHT22;4763;48.370;10.874;2023-04-24T03:53:53;9.80;99.90
9450;DHT22;4763;48.370;10.874;2023-04-24T03:56:40;9.80;99.90
9450;DHT22;4763;48.370;10.874;2023-04-24T03:59:27;9.90;99.90
9450;DHT22;4763;48.370;10.874;2023-04-24T04:02:15;9.90;99.90
9450;DHT22;4763;48.370;10.874;2023-04-24T04:05:02;9.90;99.90
9450;DHT22;4763;48.370;10.874;2023-04-24T04:07:49;9.90;99.90
9450;DHT22;4763;48.370;10.874;2023-04-24T04:10:37;9.80;99.90
9450;DHT22;4763;48.370;10.874;2023-04-24T04:13:24;9.70;99.90
9450;DHT22;4763;48.370;10.874;2023-04-24T04:16:12;9.80;99.90
9450;DHT22;4763;48.370;10.874;2023-04-24T04:18:59;9.80;99.90
9450;DHT22;4763;48.370;10.874;2023-04-24T04:21:46;9.80;99.90
9450;DHT22;4763;48.370;10.874;2023-04-24T04:24:37;9.80;99.90
9450;DHT22;4763;48.370;10.874;2023-04-24T04:27:27;9.80;99.90
9450;DHT22;4763;48.370;10.874;2023-04-24T04:30:18;9.70;99.90
9450;DHT22;4763;48.370;10.874;2023-04-24T04:33:06;9.80;99.90
9450;DHT22;4763;48.370;10.874;2023-04-24T04:35:53;9.80;99.90
9450;DHT22;4763;48.370;10.874;2023-04-24T04:38:42;9.80;99.90
9450;DHT22;4763;48.370;10.874;2023-04-24T04:41:30;9.80;99.90
9450;DHT22;4763;48.370;10.874;2023-04-24T04:44:19;9.70;99.90
9450;DHT22;4763;48.370;10.874;2023-04-24T04:47:06;9.80;99.90
9450;DHT22;4763;48.370;10.874;2023-04-24T04:49:54;9.80;99.90
9450;DHT22;4763;48.370;10.874;2023-04-24T04:52:41;9.70;99.90
9450;DHT22;4763;48.370;10.874;2023-04-24T04:55:28;9.70;99.90
9450;DHT22;4763;48.370;10.874;2023-04-24T04:58:15;9.80;99.90
9450;DHT22;4763;48.370;10.874;2023-04-24T05:01:04;9.80;99.90
9450;DHT22;4763;48.370;10.874;2023-04-24T05:03:52;9.90;99.90
9450;DHT22;4763;48.370;10.874;2023-04-24T05:06:39;9.80;99.90
9450;DHT22;4763;48.370;10.874;2023-04-24T05:09:26;9.90;99.90
9450;DHT22;4763;48.370;10.874;2023-04-24T05:12:15;9.90;99.90
9450;DHT22;4763;48.370;10.874;2023-04-24T05:15:02;10.00;99.90
9450;DHT22;4763;48.370;10.874;2023-04-24T05:17:51;10.00;99.90
9450;DHT22;4763;48.370;10.874;2023-04-24T05:20:38;10.00;99.90
9450;DHT22;4763;48.370;10.874;2023-04-24T05:23:25;10.00;99.90
9450;DHT22;4763;48.370;10.874;2023-04-24T05:26:13;9.90;99.90
9450;DHT22;4763;48.370;10.874;2023-04-24T05:29:00;10.00;99.90
9450;DHT22;4763;48.370;10.874;2023-04-24T05:31:48;10.00;99.90
9450;DHT22;4763;48.370;10.874;2023-04-24T05:34:36;9.90;99.90
9450;DHT22;4763;48.370;10.874;2023-04-24T05:37:23;10.00;99.90
9450;DHT22;4763;48.370;10.874;2023-04-24T05:40:10;10.00;99.90
9450;DHT22;4763;48.370;10.874;2023-04-24T05:42:57;10.00;99.90
9450;DHT22;4763;48.370;10.874;2023-04-24T05:45:44;10.00;99.90
9450;DHT22;4763;48.370;10.874;2023-04-24T05:48:31;10.00;99.90
9450;DHT22;4763;48.370;10.874;2023-04-24T05:51:20;10.00;99.90
9450;DHT22;4763;48.370;10.874;2023-04-24T05:54:07;10.00;99.90
9450;DHT22;4763;48.370;10.874;2023-04-24T05:56:54;10.00;99.90
9450;DHT22;4763;48.370;10.874;2023-04-24T05:59:41;10.10;99.90
9450;DHT22;4763;48.370;10.874;2023-04-24T06:02:28;10.10;99.90
9450;DHT22;4763;48.370;10.874;2023-04-24T06:05:18;10.20;99.90
9450;DHT22;4763;48.370;10.874;2023-04-24T06:08:06;10.20;99.90
9450;DHT22;4763;48.370;10.874;2023-04-24T06:10:53;10.10;99.90
9450;DHT22;4763;48.370;10.874;2023-04-24T06:13:40;10.20;99.90
9450;DHT22;4763;48.370;10.874;2023-04-24T06:16:27;10.20;99.90
9450;DHT22;4763;48.370;10.874;2023-04-24T06:19:14;10.20;99.90
9450;DHT22;4763;48.370;10.874;2023-04-24T06:22:01;10.20;99.90
9450;DHT22;4763;48.370;10.874;2023-04-24T06:24:50;10.40;99.90
9450;DHT22;4763;48.370;10.874;2023-04-24T06:27:37;10.40;99.90
9450;DHT22;4763;48.370;10.874;2023-04-24T06:30:24;10.40;99.90
9450;DHT22;4763;48.370;10.874;2023-04-24T06:33:11;10.40;99.90
9450;DHT22;4763;48.370;10.874;2023-04-24T06:35:58;10.40;99.90
9450;DHT22;4763;48.370;10.874;2023-04-24T06:38:45;10.40;99.90
9450;DHT22;4763;48.370;10.874;2023-04-24T06:41:33;10.40;99.90
9450;DHT22;4763;48.370;10.874;2023-04-24T06:44:21;10.40;99.90
9450;DHT22;4763;48.370;10.874;2023-04-24T06:47:08;10.50;99.90
9450;DHT22;4763;48.370;10.874;2023-04-24T06:49:55;10.50;99.90
9450;DHT22;4763;48.370;10.874;2023-04-24T06:52:42;10.50;99.90
9450;DHT22;4763;48.370;10.874;2023-04-24T06:55:30;10.60;99.90
9450;DHT22;4763;48.370;10.874;2023-04-24T06:58:18;10.60;99.90
9450;DHT22;4763;48.370;10.874;2023-04-24T07:01:05;10.60;99.90
9450;DHT22;4763;48.370;10.874;2023-04-24T07:03:52;10.60;99.90
9450;DHT22;4763;48.370;10.874;2023-04-24T07:06:39;10.60;99.90
9450;DHT22;4763;48.370;10.874;2023-04-24T07:09:26;10.60;99.90
9450;DHT22;4763;48.370;10.874;2023-04-24T07:12:14;10.60;99.90
9450;DHT22;4763;48.370;10.874;2023-04-24T07:15:05;10.50;99.90
9450;DHT22;4763;48.370;10.874;2023-04-24T07:17:53;10.50;99.90
9450;DHT22;4763;48.370;10.874;2023-04-24T07:20:41;10.50;99.90
9450;DHT22;4763;48.370;10.874;2023-04-24T07:23:28;10.50;99.90
9450;DHT22;4763;48.370;10.874;2023-04-24T07:26:16;10.60;99.90
9450;DHT22;4763;48.370;10.874;2023-04-24T07:29:04;10.60;99.90
9450;DHT22;4763;48.370;10.874;2023-04-24T07:31:52;10.50;99.90
9450;DHT22;4763;48.370;10.874;2023-04-24T07:34:39;10.50;99.90
9450;DHT22;4763;48.370;10.874;2023-04-24T07:37:27;10.40;99.90
9450;DHT22;4763;48.370;10.874;2023-04-24T07:40:14;10.30;99.90
9450;DHT22;4763;48.370;10.874;2023-04-24T07:43:02;10.30;99.90
9450;DHT22;4763;48.370;10.874;2023-04-24T07:45:49;10.30;99.90
9450;DHT22;4763;48.370;10.874;2023-04-24T07:48:37;10.30;99.90
9450;DHT22;4763;48.370;10.874;2023-04-24T07:51:24;10.40;99.90
9450;DHT22;4763;48.370;10.874;2023-04-24T07:54:12;10.40;99.90
9450;DHT22;4763;48.370;10.874;2023-04-24T07:57:00;10.30;99.90
9450;DHT22;4763;48.370;10.874;2023-04-24T07:59:47;10.30;99.90
9450;DHT22;4763;48.370;10.874;2023-04-24T08:02:34;10.20;99.90
9450;DHT22;4763;48.370;10.874;2023-04-24T08:05:22;10.30;99.90
9450;DHT22;4763;48.370;10.874;2023-04-24T08:08:11;10.40;99.90
9450;DHT22;4763;48.370;10.874;2023-04-24T08:10:58;10.50;99.90
9450;DHT22;4763;48.370;10.874;2023-04-24T08:13:45;10.60;99.90
9450;DHT22;4763;48.370;10.874;2023-04-24T08:16:32;10.60;99.90
9450;DHT22;4763;48.370;10.874;2023-04-24T08:19:20;10.70;99.90
9450;DHT22;4763;48.370;10.874;2023-04-24T08:22:08;10.70;99.90
9450;DHT22;4763;48.370;10.874;2023-04-24T08:24:56;10.80;99.90
9450;DHT22;4763;48.370;10.874;2023-04-24T08:27:43;11.00;99.90
9450;DHT22;4763;48.370;10.874;2023-04-24T08:30:30;11.20;99.90
9450;DHT22;4763;48.370;10.874;2023-04-24T08:33:17;11.40;99.90
9450;DHT22;4763;48.370;10.874;2023-04-24T08:36:05;11.50;99.90
9450;DHT22;4763;48.370;10.874;2023-04-24T08:38:53;11.50;99.90
9450;DHT22;4763;48.370;10.874;2023-04-24T08:41:41;11.80;99.90
9450;DHT22;4763;48.370;10.874;2023-04-24T08:44:32;11.80;99.90
9450;DHT22;4763;48.370;10.874;2023-04-24T08:47:20;11.90;99.90
9450;DHT22;4763;48.370;10.874;2023-04-24T08:50:08;11.80;99.90
9450;DHT22;4763;48.370;10.874;2023-04-24T08:52:55;11.80;99.90
9450;DHT22;4763;48.370;10.874;2023-04-24T08:55:46;11.90;99.90
9450;DHT22;4763;48.370;10.874;2023-04-24T08:58:35;11.90;99.90
9450;DHT22;4763;48.370;10.874;2023-04-24T09:01:23;11.80;99.90
9450;DHT22;4763;48.370;10.874;2023-04-24T09:04:12;12.00;99.90
9450;DHT22;4763;48.370;10.874;2023-04-24T09:07:02;12.10;99.90
9450;DHT22;4763;48.370;10.874;2023-04-24T09:09:51;12.20;99.90
9450;DHT22;4763;48.370;10.874;2023-04-24T09:12:40;12.10;99.90
9450;DHT22;4763;48.370;10.874;2023-04-24T09:15:27;12.30;99.90
9450;DHT22;4763;48.370;10.874;2023-04-24T09:18:14;12.70;99.90
9450;DHT22;4763;48.370;10.874;2023-04-24T09:21:03;12.70;99.90
9450;DHT22;4763;48.370;10.874;2023-04-24T09:24:01;12.90;99.90
9450;DHT22;4763;48.370;10.874;2023-04-24T09:26:56;13.30;99.90
9450;DHT22;4763;48.370;10.874;2023-04-24T09:29:54;13.50;99.90
9450;DHT22;4763;48.370;10.874;2023-04-24T09:32:41;13.10;99.90
9450;DHT22;4763;48.370;10.874;2023-04-24T09:35:28;12.90;99.90
9450;DHT22;4763;48.370;10.874;2023-04-24T09:38:16;13.00;99.90
9450;DHT22;4763;48.370;10.874;2023-04-24T09:41:04;13.00;99.90
9450;DHT22;4763;48.370;10.874;2023-04-24T09:43:53;13.20;99.90
9450;DHT22;4763;48.370;10.874;2023-04-24T09:46:46;13.40;99.90
9450;DHT22;4763;48.370;10.874;2023-04-24T09:49:35;13.30;99.90
9450;DHT22;4763;48.370;10.874;2023-04-24T09:52:24;13.20;99.90
9450;DHT22;4763;48.370;10.874;2023-04-24T09:55:15;13.40;99.90
9450;DHT22;4763;48.370;10.874;2023-04-24T09:58:02;13.40;99.90
9450;DHT22;4763;48.370;10.874;2023-04-24T10:00:53;13.60;99.90
9450;DHT22;4763;48.370;10.874;2023-04-24T10:03:42;13.70;99.90
9450;DHT22;4763;48.370;10.874;2023-04-24T10:06:32;13.60;99.90
9450;DHT22;4763;48.370;10.874;2023-04-24T10:09:22;13.80;99.90
9450;DHT22;4763;48.370;10.874;2023-04-24T10:12:09;13.60;99.90
9450;DHT22;4763;48.370;10.874;2023-04-24T10:14:56;12.80;99.90
9450;DHT22;4763;48.370;10.874;2023-04-24T10:17:45;12.30;99.90
9450;DHT22;4763;48.370;10.874;2023-04-24T10:20:39;12.20;99.90
9450;DHT22;4763;48.370;10.874;2023-04-24T10:23:27;11.70;99.90
9450;DHT22;4763;48.370;10.874;2023-04-24T10:26:16;11.50;99.90
9450;DHT22;4763;48.370;10.874;2023-04-24T10:29:05;11.40;99.90
9450;DHT22;4763;48.370;10.874;2023-04-24T10:31:55;11.50;99.90
9450;DHT22;4763;48.370;10.874;2023-04-24T10:34:42;11.20;99.90
9450;DHT22;4763;48.370;10.874;2023-04-24T10:37:36;10.60;99.90
9450;DHT22;4763;48.370;10.874;2023-04-24T10:40:26;10.70;99.90
9450;DHT22;4763;48.370;10.874;2023-04-24T10:43:17;10.80;99.90
9450;DHT22;4763;48.370;10.874;2023-04-24T10:46:05;10.90;99.90
9450;DHT22;4763;48.370;10.874;2023-04-24T10:48:53;11.00;99.90
9450;DHT22;4763;48.370;10.874;2023-04-24T10:51:48;11.20;99.90
9450;DHT22;4763;48.370;10.874;2023-04-24T10:54:42;11.50;99.90
9450;DHT22;4763;48.370;10.874;2023-04-24T10:57:29;11.90;99.90
9450;DHT22;4763;48.370;10.874;2023-04-24T11:00:19;12.30;99.90
9450;DHT22;4763;48.370;10.874;2023-04-24T11:03:22;12.70;99.90
9450;DHT22;4763;48.370;10.874;2023-04-24T11:06:09;13.20;99.90
9450;DHT22;4763;48.370;10.874;2023-04-24T11:09:02;13.60;99.90
9450;DHT22;4763;48.370;10.874;2023-04-24T11:12:03;14.20;99.90
9450;DHT22;4763;48.370;10.874;2023-04-24T11:15:01;14.10;99.90
9450;DHT22;4763;48.370;10.874;2023-04-24T11:17:48;13.70;99.90
9450;DHT22;4763;48.370;10.874;2023-04-24T11:20:36;13.70;99.90
9450;DHT22;4763;48.370;10.874;2023-04-24T11:23:35;13.90;99.90
9450;DHT22;4763;48.370;10.874;2023-04-24T11:26:23;14.40;99.90
9450;DHT22;4763;48.370;10.874;2023-04-24T11:29:20;14.70;99.90
9450;DHT22;4763;48.370;10.874;2023-04-24T11:32:24;15.10;99.90
9450;DHT22;4763;48.370;10.874;2023-04-24T11:35:14;15.20;99.90
9450;DHT22;4763;48.370;10.874;2023-04-24T11:38:02;15.30;99.90
9450;DHT22;4763;48.370;10.874;2023-04-24T11:40:49;15.30;99.90
9450;DHT22;4763;48.370;10.874;2023-04-24T11:43:36;15.80;99.90
9450;DHT22;4763;48.370;10.874;2023-04-24T11:46:28;15.20;99.90
9450;DHT22;4763;48.370;10.874;2023-04-24T11:49:17;14.80;99.90
9450;DHT22;4763;48.370;10.874;2023-04-24T11:52:04;14.60;99.90
9450;DHT22;4763;48.370;10.874;2023-04-24T11:54:52;14.40;99.90
9450;DHT22;4763;48.370;10.874;2023-04-24T11:57:39;14.30;99.90
9450;DHT22;4763;48.370;10.874;2023-04-24T12:00:31;13.90;99.90
9450;DHT22;4763;48.370;10.874;2023-04-24T12:03:21;13.90;99.90
9450;DHT22;4763;48.370;10.874;2023-04-24T12:06:09;13.90;99.90
9450;DHT22;4763;48.370;10.874;2023-04-24T12:08:57;15.10;99.90
9450;DHT22;4763;48.370;10.874;2023-04-24T12:11:52;15.60;99.90
9450;DHT22;4763;48.370;10.874;2023-04-24T12:14:47;15.70;99.90
9450;DHT22;4763;48.370;10.874;2023-04-24T12:17:34;15.00;99.90
9450;DHT22;4763;48.370;10.874;2023-04-24T12:20:26;14.90;99.90
9450;DHT22;4763;48.370;10.874;2023-04-24T12:23:13;14.50;99.90
9450;DHT22;4763;48.370;10.874;2023-04-24T12:26:00;14.40;99.90
9450;DHT22;4763;48.370;10.874;2023-04-24T12:28:49;14.60;99.90
9450;DHT22;4763;48.370;10.874;2023-04-24T12:31:36;14.70;99.90
9450;DHT22;4763;48.370;10.874;2023-04-24T12:34:24;15.20;99.90
9450;DHT22;4763;48.370;10.874;2023-04-24T12:37:13;15.70;99.90
9450;DHT22;4763;48.370;10.874;2023-04-24T12:40:01;15.70;99.90
9450;DHT22;4763;48.370;10.874;2023-04-24T12:42:50;15.90;99.90
9450;DHT22;4763;48.370;10.874;2023-04-24T12:45:37;16.10;99.90
9450;DHT22;4763;48.370;10.874;2023-04-24T12:48:24;15.80;99.90
9450;DHT22;4763;48.370;10.874;2023-04-24T12:51:11;15.30;99.90
9450;DHT22;4763;48.370;10.874;2023-04-24T12:54:00;15.10;99.90
9450;DHT22;4763;48.370;10.874;2023-04-24T12:56:47;14.80;99.90
9450;DHT22;4763;48.370;10.874;2023-04-24T12:59:34;14.60;99.90
9450;DHT22;4763;48.370;10.874;2023-04-24T13:02:21;14.30;99.90
9450;DHT22;4763;48.370;10.874;2023-04-24T13:05:08;14.20;99.90
9450;DHT22;4763;48.370;10.874;2023-04-24T13:07:57;14.30;99.90
9450;DHT22;4763;48.370;10.874;2023-04-24T13:10:46;14.90;99.90
9450;DHT22;4763;48.370;10.874;2023-04-24T13:13:33;15.50;99.90
9450;DHT22;4763;48.370;10.874;2023-04-24T13:16:20;15.70;99.90
9450;DHT22;4763;48.370;10.874;2023-04-24T13:19:08;15.70;99.90
9450;DHT22;4763;48.370;10.874;2023-04-24T13:21:56;15.60;99.90
9450;DHT22;4763;48.370;10.874;2023-04-24T13:24:44;15.70;99.90
9450;DHT22;4763;48.370;10.874;2023-04-24T13:27:37;15.90;99.90
9450;DHT22;4763;48.370;10.874;2023-04-24T13:30:24;15.90;99.90
9450;DHT22;4763;48.370;10.874;2023-04-24T13:33:11;15.50;99.90
9450;DHT22;4763;48.370;10.874;2023-04-24T13:35:58;15.40;99.90
9450;DHT22;4763;48.370;10.874;2023-04-24T13:38:45;15.70;99.90
9450;DHT22;4763;48.370;10.874;2023-04-24T13:41:33;15.80;99.90
9450;DHT22;4763;48.370;10.874;2023-04-24T13:44:22;15.40;99.90
9450;DHT22;4763;48.370;10.874;2023-04-24T13:47:09;15.40;99.90
9450;DHT22;4763;48.370;10.874;2023-04-24T13:49:56;14.90;99.90
9450;DHT22;4763;48.370;10.874;2023-04-24T13:52:43;14.60;99.90
9450;DHT22;4763;48.370;10.874;2023-04-24T13:55:30;14.60;99.90
9450;DHT22;4763;48.370;10.874;2023-04-24T13:58:17;14.50;99.90
9450;DHT22;4763;48.370;10.874;2023-04-24T14:01:06;14.40;99.90
9450;DHT22;4763;48.370;10.874;2023-04-24T14:03:53;14.60;99.90
9450;DHT22;4763;48.370;10.874;2023-04-24T14:06:40;14.60;99.90
9450;DHT22;4763;48.370;10.874;2023-04-24T14:09:27;14.50;99.90
9450;DHT22;4763;48.370;10.874;2023-04-24T14:12:14;14.10;99.90
9450;DHT22;4763;48.370;10.874;2023-04-24T14:15:05;14.10;99.90
9450;DHT22;4763;48.370;10.874;2023-04-24T14:17:53;13.70;99.90
9450;DHT22;4763;48.370;10.874;2023-04-24T14:20:40;13.60;99.90
9450;DHT22;4763;48.370;10.874;2023-04-24T14:23:27;13.80;99.90
9450;DHT22;4763;48.370;10.874;2023-04-24T14:26:14;14.60;99.90
9450;DHT22;4763;48.370;10.874;2023-04-24T14:29:01;15.20;99.90
9450;DHT22;4763;48.370;10.874;2023-04-24T14:31:48;15.60;99.90
9450;DHT22;4763;48.370;10.874;2023-04-24T14:34:37;15.70;99.90
9450;DHT22;4763;48.370;10.874;2023-04-24T14:37:24;16.10;99.90
9450;DHT22;4763;48.370;10.874;2023-04-24T14:40:11;16.10;99.90
9450;DHT22;4763;48.370;10.874;2023-04-24T14:42:59;16.30;99.90
9450;DHT22;4763;48.370;10.874;2023-04-24T14:45:46;16.20;99.90
9450;DHT22;4763;48.370;10.874;2023-04-24T14:48:33;15.90;99.90
9450;DHT22;4763;48.370;10.874;2023-04-24T14:51:22;15.70;99.90
9450;DHT22;4763;48.370;10.874;2023-04-24T14:54:09;15.50;99.90
9450;DHT22;4763;48.370;10.874;2023-04-24T14:56:56;15.30;99.90
9450;DHT22;4763;48.370;10.874;2023-04-24T14:59:43;15.30;99.90
9450;DHT22;4763;48.370;10.874;2023-04-24T15:02:30;16.00;99.90
9450;DHT22;4763;48.370;10.874;2023-04-24T15:05:18;15.80;99.90
9450;DHT22;4763;48.370;10.874;2023-04-24T15:08:06;15.70;99.90
9450;DHT22;4763;48.370;10.874;2023-04-24T15:10:53;15.50;99.90
9450;DHT22;4763;48.370;10.874;2023-04-24T15:13:40;16.00;99.90
9450;DHT22;4763;48.370;10.874;2023-04-24T15:16:27;15.90;99.90
9450;DHT22;4763;48.370;10.874;2023-04-24T15:19:14;15.90;99.90
9450;DHT22;4763;48.370;10.874;2023-04-24T15:22:01;15.90;99.90
9450;DHT22;4763;48.370;10.874;2023-04-24T15:24:50;15.80;99.90
9450;DHT22;4763;48.370;10.874;2023-04-24T15:27:41;15.70;99.90
9450;DHT22;4763;48.370;10.874;2023-04-24T15:30:29;15.40;99.90
9450;DHT22;4763;48.370;10.874;2023-04-24T15:33:16;15.10;99.90
9450;DHT22;4763;48.370;10.874;2023-04-24T15:36:04;14.70;99.90
9450;DHT22;4763;48.370;10.874;2023-04-24T15:38:51;15.40;99.90
9450;DHT22;4763;48.370;10.874;2023-04-24T15:41:39;15.70;99.90
9450;DHT22;4763;48.370;10.874;2023-04-24T15:44:26;16.20;99.90
9450;DHT22;4763;48.370;10.874;2023-04-24T15:47:13;16.10;99.90
9450;DHT22;4763;48.370;10.874;2023-04-24T15:50:01;16.20;99.90
9450;DHT22;4763;48.370;10.874;2023-04-24T15:52:48;16.70;99.90
9450;DHT22;4763;48.370;10.874;2023-04-24T15:55:35;16.20;99.90
9450;DHT22;4763;48.370;10.874;2023-04-24T15:58:24;16.10;99.90
9450;DHT22;4763;48.370;10.874;2023-04-24T16:01:11;15.40;99.90
9450;DHT22;4763;48.370;10.874;2023-04-24T16:03:58;15.10;99.90
9450;DHT22;4763;48.370;10.874;2023-04-24T16:06:45;15.00;99.90
9450;DHT22;4763;48.370;10.874;2023-04-24T16:09:32;14.80;99.90
9450;DHT22;4763;48.370;10.874;2023-04-24T16:12:19;15.00;99.90
9450;DHT22;4763;48.370;10.874;2023-04-24T16:15:08;15.20;99.90
9450;DHT22;4763;48.370;10.874;2023-04-24T16:17:55;15.40;99.90
9450;DHT22;4763;48.370;10.874;2023-04-24T16:20:43;15.20;99.90
9450;DHT22;4763;48.370;10.874;2023-04-24T16:23:30;14.80;99.90
9450;DHT22;4763;48.370;10.874;2023-04-24T16:26:17;14.70;99.90
9450;DHT22;4763;48.370;10.874;2023-04-24T16:29:04;14.80;99.90
9450;DHT22;4763;48.370;10.874;2023-04-24T16:31:53;14.60;99.90
9450;DHT22;4763;48.370;10.874;2023-04-24T16:34:40;14.30;99.90
9450;DHT22;4763;48.370;10.874;2023-04-24T16:37:28;14.10;99.90
9450;DHT22;4763;48.370;10.874;2023-04-24T16:40:15;14.20;99.90
9450;DHT22;4763;48.370;10.874;2023-04-24T16:43:02;14.00;99.90
9450;DHT22;4763;48.370;10.874;2023-04-24T16:45:50;13.90;99.90
9450;DHT22;4763;48.370;10.874;2023-04-24T16:48:39;13.60;99.90
9450;DHT22;4763;48.370;10.874;2023-04-24T16:51:26;13.60;99.90
9450;DHT22;4763;48.370;10.874;2023-04-24T16:54:13;13.30;99.90
9450;DHT22;4763;48.370;10.874;2023-04-24T16:57:01;13.20;99.90
9450;DHT22;4763;48.370;10.874;2023-04-24T16:59:48;13.30;99.90
9450;DHT22;4763;48.370;10.874;2023-04-24T17:02:35;13.30;99.90
9450;DHT22;4763;48.370;10.874;2023-04-24T17:05:23;13.10;99.90
9450;DHT22;4763;48.370;10.874;2023-04-24T17:08:10;13.00;99.90
9450;DHT22;4763;48.370;10.874;2023-04-24T17:10:57;12.80;99.90
9450;DHT22;4763;48.370;10.874;2023-04-24T17:13:45;12.70;99.90
9450;DHT22;4763;48.370;10.874;2023-04-24T17:16:32;12.60;99.90
9450;DHT22;4763;48.370;10.874;2023-04-24T17:19:19;12.50;99.90
9450;DHT22;4763;48.370;10.874;2023-04-24T17:22:08;12.50;99.90
9450;DHT22;4763;48.370;10.874;2023-04-24T17:24:55;12.30;99.90
9450;DHT22;4763;48.370;10.874;2023-04-24T17:27:42;12.20;99.90
9450;DHT22;4763;48.370;10.874;2023-04-24T17:30:29;12.20;99.90
9450;DHT22;4763;48.370;10.874;2023-04-24T17:33:16;12.00;99.90
9450;DHT22;4763;48.370;10.874;2023-04-24T17:36:04;12.00;99.90
9450;DHT22;4763;48.370;10.874;2023-04-24T17:38:53;11.90;99.90
9450;DHT22;4763;48.370;10.874;2023-04-24T17:41:40;11.90;99.90
9450;DHT22;4763;48.370;10.874;2023-04-24T17:44:27;11.80;99.90
9450;DHT22;4763;48.370;10.874;2023-04-24T17:47:14;11.60;99.90
9450;DHT22;4763;48.370;10.874;2023-04-24T17:50:01;11.60;99.90
9450;DHT22;4763;48.370;10.874;2023-04-24T17:52:48;11.50;99.90
9450;DHT22;4763;48.370;10.874;2023-04-24T17:55:37;11.40;99.90
9450;DHT22;4763;48.370;10.874;2023-04-24T17:58:25;11.40;99.90
9450;DHT22;4763;48.370;10.874;2023-04-24T18:01:12;11.30;99.90